Time;durP1;ratioP1;P1;durP2;ratioP2;P2;SDS_P1;SDS_P2;PMS_P1;PMS_P2;Temp;Humidity;BMP_temperature;BMP_pressure;BME280_temperature;BME280_humidity;BME280_pressure;Samples;Min_cycle;Max_cycle;Signal;HPM_P1;HPM_P2
2022/01/23 00:02:27;;;;;;;7.38;4.47;;;;;;;-4.52;64.23;93582.94;5050295;28;20041;-38
2022/01/23 00:04:54;;;;;;;7.32;4.05;;;;;;;-4.46;64.76;93586.56;5069713;28;20039;-38
2022/01/23 00:07:20;;;;;;;4.75;3.53;;;;;;;-4.39;64.06;93586.25;5072348;28;20047;-38
2022/01/23 00:09:45;;;;;;;8.18;3.42;;;;;;;-4.34;63.85;93599.13;5074119;28;20039;-39
2022/01/23 00:12:17;;;;;;;4.85;2.67;;;;;;;-4.40;63.88;93593.59;5074279;28;20103;-38
2022/01/23 00:17:33;;;;;;;5.28;2.97;;;;;;;-4.25;63.98;93599.13;5074118;28;20108;-38
2022/01/23 00:19:59;;;;;;;6.75;3.35;;;;;;;-4.20;62.62;93585.06;5073933;28;20029;-38
2022/01/23 00:22:35;;;;;;;5.40;3.28;;;;;;;-4.17;63.40;93592.97;5074135;28;20551;-37
2022/01/23 00:30:31;;;;;;;6.15;3.38;;;;;;;-4.19;62.80;93594.63;5073956;28;20044;-38
2022/01/23 00:32:58;;;;;;;5.68;3.33;;;;;;;-4.18;63.11;93594.16;5073190;28;20032;-37
2022/01/23 00:35:25;;;;;;;7.45;3.92;;;;;;;-4.24;63.28;93597.91;5073396;28;20041;-37
2022/01/23 00:37:50;;;;;;;8.02;4.03;;;;;;;-4.17;63.00;93592.97;5073827;28;20020;-37
2022/01/23 00:40:16;;;;;;;8.07;3.72;;;;;;;-4.20;64.68;93598.53;5067985;28;20029;-36
2022/01/23 00:42:43;;;;;;;7.63;3.90;;;;;;;-4.27;63.71;93582.66;5053340;28;20410;-37
2022/01/23 00:47:50;;;;;;;7.68;4.95;;;;;;;-4.29;62.73;93601.22;5053441;28;20025;-36
2022/01/23 00:50:15;;;;;;;11.85;5.60;;;;;;;-4.34;63.01;93604.50;5053230;28;20052;-36
2022/01/23 00:52:41;;;;;;;7.93;5.57;;;;;;;-4.32;62.53;93602.13;5053582;28;20064;-37
2022/01/23 00:55:07;;;;;;;9.15;4.53;;;;;;;-4.25;62.92;93604.53;5053117;28;20098;-38
2022/01/23 00:57:33;;;;;;;9.88;4.22;;;;;;;-4.19;62.39;93608.84;5053110;28;20044;-38
2022/01/23 01:00:00;;;;;;;11.43;4.20;;;;;;;-4.34;61.97;93599.13;5053113;28;20037;-37
2022/01/23 01:02:26;;;;;;;10.32;4.15;;;;;;;-4.31;63.29;93603.63;5053308;28;20102;-39
2022/01/23 01:04:51;;;;;;;8.35;4.80;;;;;;;-4.38;64.46;93609.31;5053037;28;20505;-38
2022/01/23 01:07:17;;;;;;;8.20;4.72;;;;;;;-4.58;65.33;93606.31;5052932;28;20024;-38
2022/01/23 01:09:48;;;;;;;7.70;4.70;;;;;;;-4.77;66.59;93617.06;5053324;28;20175;-38
2022/01/23 01:12:19;;;;;;;7.03;4.63;;;;;;;-4.85;67.15;93609.72;5052952;28;20040;-38
2022/01/23 01:31:07;;;;;;;8.13;4.93;;;;;;;-4.48;67.36;93608.53;5052499;28;20500;-37
2022/01/23 01:36:20;;;;;;;8.07;5.50;;;;;;;-4.51;66.29;93608.72;5070831;28;20052;-38
2022/01/23 01:38:46;;;;;;;7.55;4.57;;;;;;;-4.62;67.00;93607.22;5052580;28;20071;-38
2022/01/23 01:41:13;;;;;;;7.35;4.00;;;;;;;-4.61;67.21;93614.09;5052396;28;20074;-38
2022/01/23 01:43:38;;;;;;;5.40;4.05;;;;;;;-4.83;68.57;93610.75;5052602;28;20089;-38
2022/01/23 01:46:04;;;;;;;8.02;5.13;;;;;;;-5.08;69.01;93613.69;5052264;28;20032;-37
2022/01/23 01:48:29;;;;;;;14.18;5.47;;;;;;;-5.38;70.65;93620.63;5052582;28;20025;-38
2022/01/23 01:50:56;;;;;;;7.35;5.10;;;;;;;-5.39;70.83;93615.69;5052322;28;20098;-38
2022/01/23 01:53:25;;;;;;;9.65;5.60;;;;;;;-5.30;71.16;93618.41;5052437;28;20473;-38
2022/01/23 01:55:54;;;;;;;14.35;6.22;;;;;;;-5.38;70.89;93617.94;5052335;28;20035;-38
2022/01/23 02:02:38;;;;;;;5.80;4.25;;;;;;;-5.66;72.03;93594.81;5052215;28;20025;-37
2022/01/23 02:09:27;;;;;;;8.65;5.75;;;;;;;-5.31;71.83;93614.25;5052158;28;20031;-37
2022/01/23 02:14:39;;;;;;;8.85;5.28;;;;;;;-5.09;71.30;93616.84;5051804;28;20033;-38
2022/01/23 02:17:28;;;;;;;9.32;4.75;;;;;;;-5.11;71.72;93614.56;5050555;28;20041;-37
2022/01/23 02:50:30;;;;;;;12.10;6.65;;;;;;;-4.70;70.29;93616.03;5051859;28;20126;-38
2022/01/23 02:55:14;;;;;;;4.60;3.35;;;;;;;-4.97;70.90;93632.88;5051051;28;20387;-38
2022/01/23 03:00:15;;;;;;;5.97;3.63;;;;;;;-5.13;71.44;93629.69;5063268;28;20032;-38
2022/01/23 03:02:45;;;;;;;11.73;4.88;;;;;;;-5.11;71.22;93638.06;5071007;28;20096;-38
2022/01/23 03:05:23;;;;;;;9.05;4.72;;;;;;;-4.86;71.86;93645.91;5071075;28;20115;-39
2022/01/23 03:10:25;;;;;;;10.77;6.25;;;;;;;-4.80;70.41;93639.50;5070658;28;20473;-39
2022/01/23 03:26:48;;;;;;;8.15;4.88;;;;;;;-4.84;70.60;93648.91;5050712;28;20124;-37
2022/01/23 03:32:23;;;;;;;8.68;5.40;;;;;;;-4.73;69.37;93655.38;5070379;28;20141;-38
2022/01/23 03:34:19;;;;;;;7.50;5.63;;;;;;;-4.67;69.83;93653.59;5045790;28;20052;-37
2022/01/23 03:36:45;;;;;;;9.48;5.15;;;;;;;-4.64;69.94;93662.72;5050463;28;20024;-38
2022/01/23 03:39:11;;;;;;;9.98;5.97;;;;;;;-4.54;69.70;93668.88;5050166;28;20024;-37
2022/01/23 03:41:41;;;;;;;10.40;5.85;;;;;;;-4.53;68.92;93663.06;5049648;28;20024;-37
2022/01/23 03:44:08;;;;;;;12.05;6.80;;;;;;;-4.59;69.46;93666.78;5050360;28;20025;-37
2022/01/23 03:51:44;;;;;;;10.65;6.95;;;;;;;-4.54;69.08;93660.78;5050379;28;20091;-37
2022/01/23 03:54:10;;;;;;;9.68;5.90;;;;;;;-4.43;69.56;93658.41;5049980;28;20056;-37
2022/01/23 03:56:35;;;;;;;15.13;9.90;;;;;;;-4.41;68.77;93659.47;5049915;28;20024;-37
2022/01/23 03:59:01;;;;;;;16.95;8.73;;;;;;;-4.50;68.46;93662.13;5049796;28;20124;-37
2022/01/23 04:01:26;;;;;;;101.40;46.63;;;;;;;-4.51;68.30;93654.50;5049900;28;20032;-38
2022/01/23 04:03:55;;;;;;;16.70;7.45;;;;;;;-4.53;68.75;93657.66;5050127;28;20036;-38
2022/01/23 04:06:21;;;;;;;19.30;8.70;;;;;;;-4.40;68.00;93660.22;5050195;28;20421;-38
2022/01/23 04:08:48;;;;;;;19.17;9.07;;;;;;;-4.42;66.91;93651.81;5049721;28;20017;-38
2022/01/23 04:11:14;;;;;;;12.93;8.32;;;;;;;-4.57;66.48;93654.38;5050148;28;20482;-37
2022/01/23 04:13:51;;;;;;;10.25;6.93;;;;;;;-4.80;67.21;93661.03;5049814;28;20061;-37
2022/01/23 04:34:59;;;;;;;8.27;4.10;;;;;;;-4.36;67.05;93663.50;5069425;28;20048;-37
2022/01/23 04:45:39;;;;;;;5.82;4.15;;;;;;;-4.44;67.42;93671.13;5049614;28;20036;-38
2022/01/23 05:04:17;;;;;;;10.68;6.55;;;;;;;-4.70;66.88;93686.06;5073040;28;20029;-38
2022/01/23 05:06:48;;;;;;;11.48;6.47;;;;;;;-4.71;66.75;93690.69;5072996;28;20035;-37
2022/01/23 05:09:14;;;;;;;11.48;7.32;;;;;;;-4.89;66.23;93697.94;5072909;28;20485;-38
2022/01/23 05:11:48;;;;;;;9.25;5.10;;;;;;;-4.99;67.18;93696.44;5073315;28;20410;-38
2022/01/23 05:14:14;;;;;;;9.05;5.70;;;;;;;-4.92;68.19;93704.25;5073181;28;20100;-38
2022/01/23 05:16:40;;;;;;;16.38;9.25;;;;;;;-5.00;68.52;93703.75;5073083;28;20074;-37
2022/01/23 05:19:06;;;;;;;16.42;9.10;;;;;;;-5.13;67.79;93703.09;5072993;28;20055;-38
2022/01/23 05:24:13;;;;;;;9.05;5.38;;;;;;;-5.03;68.40;93707.34;5072954;28;20448;-38
2022/01/23 05:26:44;;;;;;;14.73;8.35;;;;;;;-5.01;67.53;93707.66;5072885;28;20031;-38
2022/01/23 05:29:10;;;;;;;12.73;6.47;;;;;;;-5.13;67.18;93705.06;5072723;28;20028;-37
2022/01/23 05:31:36;;;;;;;9.57;6.78;;;;;;;-5.16;67.88;93712.06;5072275;28;20021;-37
2022/01/23 05:34:02;;;;;;;10.00;5.47;;;;;;;-5.19;67.70;93712.94;5072409;28;20024;-37
2022/01/23 05:36:27;;;;;;;16.30;6.43;;;;;;;-5.16;68.12;93712.06;5072841;28;20021;-38
2022/01/23 05:38:53;;;;;;;10.23;5.43;;;;;;;-5.12;68.25;93717.31;5072329;28;20486;-38
2022/01/23 05:41:19;;;;;;;12.35;6.55;;;;;;;-5.03;67.25;93718.13;5072430;28;20020;-38
2022/01/23 05:43:45;;;;;;;13.88;7.45;;;;;;;-5.06;67.72;93719.00;5072366;28;20021;-38
2022/01/23 05:46:10;;;;;;;16.63;8.95;;;;;;;-5.09;68.43;93714.47;5072315;28;20028;-38
2022/01/23 05:48:36;;;;;;;15.07;7.18;;;;;;;-5.03;67.79;93712.72;5072602;28;20024;-38
2022/01/23 05:51:01;;;;;;;8.52;4.80;;;;;;;-4.99;68.58;93720.66;5072462;28;20101;-37
2022/01/23 05:53:27;;;;;;;5.82;4.50;;;;;;;-5.02;67.51;93722.28;5072135;28;20016;-39
2022/01/23 05:55:52;;;;;;;9.45;6.38;;;;;;;-4.92;68.10;93720.41;5072019;28;20021;-38
2022/01/23 05:58:18;;;;;;;15.73;10.55;;;;;;;-5.01;67.69;93728.44;5071965;28;20025;-39
2022/01/23 06:00:43;;;;;;;13.43;6.57;;;;;;;-4.92;67.58;93733.84;5072262;28;20024;-39
2022/01/23 06:03:09;;;;;;;11.00;6.63;;;;;;;-4.86;67.36;93732.09;5071870;28;20567;-39
2022/01/23 06:05:34;;;;;;;8.55;6.70;;;;;;;-4.91;67.87;93727.25;5083008;28;20031;-38
2022/01/23 06:08:00;;;;;;;9.02;5.10;;;;;;;-4.85;66.24;93744.38;5078095;28;20086;-39
2022/01/23 06:10:27;;;;;;;10.27;5.75;;;;;;;-5.43;66.79;93722.69;5072131;28;20043;-38
2022/01/23 06:12:53;;;;;;;9.73;6.10;;;;;;;-5.20;67.80;93743.00;5084090;28;20495;-39
2022/01/23 06:15:19;;;;;;;13.25;7.78;;;;;;;-5.17;67.34;93731.34;5091898;28;20089;-39
2022/01/23 06:17:45;;;;;;;10.82;6.72;;;;;;;-5.06;67.20;93737.06;5086617;28;20023;-38
2022/01/23 06:20:12;;;;;;;10.30;6.40;;;;;;;-5.05;67.04;93750.13;5071572;28;20048;-38
2022/01/23 06:22:38;;;;;;;11.15;7.57;;;;;;;-4.99;66.66;93751.03;5071507;28;20028;-38
2022/01/23 06:25:08;;;;;;;16.17;8.00;;;;;;;-5.04;67.17;93756.22;5071490;28;20031;-38
2022/01/23 06:27:34;;;;;;;26.65;10.60;;;;;;;-4.88;68.51;93754.06;5071483;28;20024;-39
2022/01/23 06:30:00;;;;;;;23.10;10.07;;;;;;;-4.84;67.05;93762.00;5071410;28;20033;-37
2022/01/23 06:32:26;;;;;;;43.83;16.10;;;;;;;-4.93;67.28;93754.66;5068832;28;20051;-38
2022/01/23 06:34:52;;;;;;;48.42;16.08;;;;;;;-4.84;66.08;93740.47;5069393;28;20045;-38
2022/01/23 06:37:17;;;;;;;52.83;20.70;;;;;;;-4.75;64.71;93759.34;5070287;28;20040;-38
2022/01/23 06:39:43;;;;;;;35.42;16.35;;;;;;;-4.75;66.11;93754.72;5071252;28;20100;-39
2022/01/23 06:42:09;;;;;;;61.13;24.80;;;;;;;-4.70;65.76;93750.72;5071205;28;20077;-38
2022/01/23 06:44:36;;;;;;;55.95;22.58;;;;;;;-4.66;65.04;93749.34;5070380;28;20017;-39
2022/01/23 06:47:02;;;;;;;29.63;13.88;;;;;;;-4.70;66.18;93740.66;5069712;28;20471;-39
2022/01/23 06:49:28;;;;;;;29.33;15.60;;;;;;;-4.73;65.77;93752.34;5069759;28;20436;-38
2022/01/23 06:51:53;;;;;;;40.00;18.58;;;;;;;-4.63;67.24;93751.16;5051027;28;20029;-38
2022/01/23 06:54:19;;;;;;;18.17;8.48;;;;;;;-4.54;66.49;93755.84;5068025;28;20048;-40
2022/01/23 06:56:45;;;;;;;22.92;11.05;;;;;;;-4.44;65.91;93762.75;5071019;28;20020;-39
2022/01/23 06:59:11;;;;;;;10.25;5.50;;;;;;;-4.45;65.02;93760.50;5070762;28;20485;-40
2022/01/23 07:01:36;;;;;;;9.73;5.25;;;;;;;-4.37;65.27;93756.31;5070692;28;20082;-39
2022/01/23 07:04:02;;;;;;;9.93;5.50;;;;;;;-4.48;64.21;93734.47;5070804;28;20016;-39
2022/01/23 07:06:27;;;;;;;7.53;4.22;;;;;;;-4.30;64.15;93745.25;5070973;28;20025;-39
2022/01/23 07:08:53;;;;;;;12.07;5.88;;;;;;;-4.09;63.51;93745.16;5070485;28;20688;-39
2022/01/23 07:11:19;;;;;;;6.35;4.85;;;;;;;-4.12;62.91;93735.28;5070481;28;20073;-39
2022/01/23 07:13:44;;;;;;;10.45;6.20;;;;;;;-4.03;63.38;93740.66;5064381;28;20024;-39
2022/01/23 07:16:10;;;;;;;26.50;11.85;;;;;;;-3.97;61.37;93746.97;5056710;28;20418;-41
2022/01/23 07:18:35;;;;;;;8.77;5.15;;;;;;;-4.28;62.49;93743.63;5050072;28;20490;-39
2022/01/23 07:21:01;;;;;;;10.35;5.78;;;;;;;-4.48;63.04;93745.97;5068759;28;20556;-40
2022/01/23 07:23:26;;;;;;;9.43;5.07;;;;;;;-4.90;63.82;93742.25;5070717;28;20115;-38
2022/01/23 07:25:52;;;;;;;10.88;6.13;;;;;;;-5.16;65.71;93738.22;5070710;28;20048;-38
2022/01/23 07:28:21;;;;;;;8.95;5.88;;;;;;;-5.27;66.08;93744.00;5070565;28;20105;-37
2022/01/23 07:33:12;;;;;;;14.07;8.43;;;;;;;-5.40;68.65;93754.09;5070359;28;20028;-37
2022/01/23 07:35:38;;;;;;;11.35;6.40;;;;;;;-5.37;67.43;93748.56;5070132;28;20094;-38
2022/01/23 07:38:04;;;;;;;11.35;7.32;;;;;;;-5.40;67.01;93749.47;5070156;28;20497;-38
2022/01/23 07:40:29;;;;;;;18.98;7.97;;;;;;;-5.42;67.04;93754.53;5070442;28;20107;-37
2022/01/23 07:42:55;;;;;;;19.08;10.18;;;;;;;-5.51;68.72;93756.41;5070030;28;20669;-38
2022/01/23 07:45:20;;;;;;;12.00;7.82;;;;;;;-5.45;67.74;93746.59;5069863;28;20032;-38
2022/01/23 07:47:46;;;;;;;14.57;9.13;;;;;;;-5.25;67.71;93760.47;5070072;28;20070;-40
2022/01/23 07:50:12;;;;;;;12.40;7.68;;;;;;;-5.18;67.54;93754.06;5069988;28;20027;-39
2022/01/23 07:52:39;;;;;;;11.70;7.57;;;;;;;-5.05;68.06;93758.19;5069875;28;20157;-39
2022/01/23 07:55:07;;;;;;;22.02;10.20;;;;;;;-4.92;67.46;93750.78;5070024;28;20067;-39
2022/01/23 07:57:33;;;;;;;17.15;8.90;;;;;;;-4.78;65.70;93758.28;5070217;28;20016;-39
2022/01/23 07:59:59;;;;;;;18.70;10.98;;;;;;;-4.75;64.94;93754.72;5069988;28;20616;-40
2022/01/23 08:02:24;;;;;;;18.45;9.90;;;;;;;-4.67;66.48;93753.25;5069557;28;20055;-40
2022/01/23 08:04:50;;;;;;;24.55;14.52;;;;;;;-4.39;64.79;93759.47;5057308;28;20037;-40
2022/01/23 08:09:55;;;;;;;9.98;5.53;;;;;;;-4.16;62.42;93758.19;5047821;28;20021;-37
2022/01/23 08:12:21;;;;;;;9.80;5.10;;;;;;;-4.00;63.40;93755.19;5066457;28;20032;-37
2022/01/23 08:14:47;;;;;;;31.58;17.05;;;;;;;-3.86;62.58;93749.22;5067665;28;20024;-37
2022/01/23 08:17:13;;;;;;;11.32;7.15;;;;;;;-3.81;61.36;93759.41;5067527;28;20017;-37
2022/01/23 08:19:38;;;;;;;11.23;6.43;;;;;;;-3.63;62.13;93745.16;5067413;28;20537;-37
2022/01/23 08:22:04;;;;;;;13.38;6.55;;;;;;;-3.38;61.24;93761.78;5067272;28;20021;-38
2022/01/23 08:24:29;;;;;;;10.00;6.72;;;;;;;-3.30;61.24;93743.34;5067369;28;20109;-38
2022/01/23 08:26:55;;;;;;;17.23;10.48;;;;;;;-3.33;61.03;93755.03;5067535;28;20076;-38
2022/01/23 08:29:20;;;;;;;10.45;6.97;;;;;;;-3.19;60.31;93759.81;5071578;28;20020;-37
2022/01/23 08:31:47;;;;;;;14.88;9.85;;;;;;;-3.25;59.75;93756.97;5071536;28;20051;-37
2022/01/23 08:34:13;;;;;;;11.13;6.60;;;;;;;-3.08;60.17;93762.81;5070938;28;20052;-38
2022/01/23 08:36:39;;;;;;;12.63;7.82;;;;;;;-3.22;59.16;93769.56;5071203;28;20031;-38
2022/01/23 08:39:05;;;;;;;10.02;5.32;;;;;;;-3.31;58.10;93769.56;5071472;28;20024;-37
2022/01/23 08:41:49;;;;;;;9.73;5.75;;;;;;;-3.23;59.27;93770.03;5070984;28;20021;-37
2022/01/23 08:44:19;;;;;;;7.63;5.63;;;;;;;-3.18;59.37;93767.47;5070931;28;20027;-38
2022/01/23 08:46:44;;;;;;;9.27;5.63;;;;;;;-3.15;60.87;93774.66;5070824;28;20024;-38
2022/01/23 08:49:10;;;;;;;9.88;6.15;;;;;;;-2.87;59.91;93775.34;5070818;28;20029;-39
2022/01/23 08:51:36;;;;;;;11.75;8.25;;;;;;;-2.79;59.17;93768.41;5050502;28;20083;-37
2022/01/23 08:54:03;;;;;;;20.08;9.80;;;;;;;-3.03;59.28;93777.66;5051014;28;20025;-37
2022/01/23 08:56:29;;;;;;;17.48;10.23;;;;;;;-3.22;60.05;93783.06;5049801;28;20124;-37
2022/01/23 08:58:55;;;;;;;14.65;7.68;;;;;;;-3.16;60.42;93786.66;5050935;28;20033;-37
2022/01/23 09:01:22;;;;;;;14.27;7.80;;;;;;;-3.17;60.27;93779.78;5050964;28;20029;-37
2022/01/23 09:03:47;;;;;;;10.98;6.82;;;;;;;-3.23;59.52;93765.34;5051399;28;20145;-37
2022/01/23 09:06:13;;;;;;;11.07;6.47;;;;;;;-3.13;60.30;93768.81;5056834;28;20766;-38
2022/01/23 09:08:40;;;;;;;9.35;7.07;;;;;;;-3.19;61.00;93767.91;5070166;28;20070;-37
2022/01/23 09:11:10;;;;;;;12.65;8.00;;;;;;;-3.36;61.24;93775.59;5070493;28;20129;-37
2022/01/23 09:16:06;;;;;;;13.40;7.32;;;;;;;-3.34;62.48;93762.41;5070689;28;20028;-38
2022/01/23 09:18:33;;;;;;;13.50;7.65;;;;;;;-3.31;62.99;93761.47;5070314;28;20037;-37
2022/01/23 09:20:59;;;;;;;14.65;8.32;;;;;;;-3.13;62.42;93772.25;5070062;28;20072;-37
2022/01/23 09:23:25;;;;;;;13.88;8.65;;;;;;;-3.26;62.96;93754.72;5070683;28;20064;-37
2022/01/23 09:25:50;;;;;;;13.27;7.53;;;;;;;-3.23;62.97;93751.13;5070682;28;20110;-38
2022/01/23 09:28:19;;;;;;;17.95;8.65;;;;;;;-3.64;63.19;93716.69;5070620;28;20441;-38
2022/01/23 09:30:48;;;;;;;23.13;7.87;;;;;;;-3.31;63.81;93747.22;5070277;28;20021;-37
2022/01/23 09:33:15;;;;;;;16.38;9.10;;;;;;;-3.34;64.68;93745.44;5066925;28;20456;-37
2022/01/23 09:35:41;;;;;;;17.00;10.55;;;;;;;-3.49;64.29;93742.63;5069420;28;20122;-37
2022/01/23 09:38:06;;;;;;;23.77;10.23;;;;;;;-3.49;64.80;93741.88;5069730;28;20082;-38
2022/01/23 09:40:33;;;;;;;18.05;9.13;;;;;;;-3.47;64.57;93742.91;5068423;28;20032;-38
2022/01/23 09:43:06;;;;;;;21.73;10.48;;;;;;;-3.39;65.16;93738.69;5069684;28;20028;-38
2022/01/23 09:45:32;;;;;;;14.35;8.63;;;;;;;-3.37;65.25;93738.25;5069695;28;20028;-38
2022/01/23 09:48:00;;;;;;;17.77;9.73;;;;;;;-3.22;65.39;93731.75;5068745;28;20036;-38
2022/01/23 09:50:27;;;;;;;21.63;11.53;;;;;;;-3.32;64.66;93724.13;5066640;28;20020;-37
2022/01/23 09:52:53;;;;;;;25.50;8.85;;;;;;;-3.66;65.34;93733.31;5069430;28;20417;-38
2022/01/23 09:55:20;;;;;;;17.17;10.30;;;;;;;-3.72;66.51;93729.72;5068717;28;20123;-38
2022/01/23 09:57:47;;;;;;;20.60;11.77;;;;;;;-3.69;66.64;93731.53;5066952;28;20024;-37
2022/01/23 10:00:19;;;;;;;14.98;8.90;;;;;;;-3.62;66.59;93722.38;5069234;28;20501;-37
2022/01/23 10:02:49;;;;;;;14.95;8.52;;;;;;;-3.69;66.97;93714.59;5066536;28;20122;-38
2022/01/23 10:05:15;;;;;;;16.10;9.70;;;;;;;-3.57;66.42;93711.72;5068979;28;20490;-37
2022/01/23 10:07:42;;;;;;;14.52;9.18;;;;;;;-3.78;66.98;93709.94;5066179;28;20027;-38
2022/01/23 10:10:13;;;;;;;13.45;8.77;;;;;;;-3.70;67.64;93702.31;5069656;28;20020;-38
2022/01/23 10:12:50;;;;;;;14.73;9.13;;;;;;;-3.67;67.94;93702.16;5069663;28;20089;-39
2022/01/23 10:15:18;;;;;;;19.15;8.48;;;;;;;-3.80;67.26;93698.88;5069579;28;20032;-38
2022/01/23 10:17:44;;;;;;;38.30;23.10;;;;;;;-3.78;68.08;93701.84;5068913;28;20060;-38
2022/01/23 10:20:11;;;;;;;15.15;9.52;;;;;;;-3.64;67.77;93701.25;5069341;28;20033;-38
2022/01/23 10:22:41;;;;;;;16.67;9.30;;;;;;;-3.62;67.93;93704.25;5069322;28;20561;-38
2022/01/23 10:25:11;;;;;;;27.58;14.55;;;;;;;-3.72;67.45;93697.34;5068636;28;20031;-38
2022/01/23 10:27:52;;;;;;;28.58;15.00;;;;;;;-3.59;67.18;93702.56;5070807;28;20025;-37
2022/01/23 10:30:23;;;;;;;15.90;7.97;;;;;;;-3.60;66.77;93685.66;5089114;28;20035;-37
2022/01/23 10:33:06;;;;;;;20.95;11.95;;;;;;;-3.63;66.84;93694.66;5081755;28;20764;-37
2022/01/23 10:35:32;;;;;;;26.92;7.18;;;;;;;-3.71;67.51;93693.47;5069019;28;20529;-37
2022/01/23 10:38:12;;;;;;;19.58;9.13;;;;;;;-3.59;67.03;93692.53;5069107;28;20021;-37
2022/01/23 10:40:47;;;;;;;11.15;7.63;;;;;;;-3.53;67.10;93692.69;5067662;28;20714;-38
2022/01/23 10:48:45;;;;;;;14.30;7.80;;;;;;;-3.45;66.84;93689.22;5051596;28;20634;-37
2022/01/23 10:51:27;;;;;;;12.43;8.48;;;;;;;-3.39;67.27;93692.06;5048504;28;20120;-37
2022/01/23 10:53:57;;;;;;;11.55;7.72;;;;;;;-3.35;65.76;93682.59;5050054;28;20052;-38
2022/01/23 10:56:24;;;;;;;16.23;8.25;;;;;;;-3.35;66.20;93665.66;5050547;28;20029;-37
2022/01/23 10:59:04;;;;;;;20.00;9.48;;;;;;;-3.32;66.29;93678.25;5050532;28;20017;-37
2022/01/23 11:01:30;;;;;;;17.85;9.40;;;;;;;-3.38;66.53;93661.91;5051182;28;20101;-37
2022/01/23 11:04:11;;;;;;;16.65;7.40;;;;;;;-3.39;66.38;93667.75;5065680;28;20564;-37
2022/01/23 11:07:00;;;;;;;13.07;8.90;;;;;;;-3.36;66.97;93662.22;5070726;28;20035;-37
2022/01/23 11:09:31;;;;;;;20.77;7.07;;;;;;;-3.30;66.59;93659.66;5070707;28;20489;-37
2022/01/23 11:12:13;;;;;;;16.80;9.60;;;;;;;-3.30;67.48;93657.69;5070981;28;20515;-37
2022/01/23 11:17:24;;;;;;;12.43;6.72;;;;;;;-3.34;67.26;93646.31;5050828;28;20039;-38
2022/01/23 11:20:00;;;;;;;12.40;7.30;;;;;;;-3.40;68.18;93642.00;5050471;28;20441;-38
2022/01/23 11:22:30;;;;;;;12.05;7.15;;;;;;;-3.46;69.17;93644.53;5067197;28;20016;-38
2022/01/23 11:25:03;;;;;;;16.30;8.20;;;;;;;-3.37;68.62;93649.16;5070337;28;20024;-39
2022/01/23 11:27:34;;;;;;;15.07;8.88;;;;;;;-3.36;68.71;93629.06;5070450;28;20043;-38
2022/01/23 11:30:03;;;;;;;17.15;10.05;;;;;;;-2.96;68.40;93642.25;5070590;28;20039;-37
2022/01/23 11:32:35;;;;;;;14.98;8.95;;;;;;;-2.82;67.72;93641.59;5070024;28;20055;-38
2022/01/23 11:35:07;;;;;;;16.13;8.18;;;;;;;-2.66;67.23;93633.84;5070167;28;20079;-38
2022/01/23 11:37:34;;;;;;;13.68;8.02;;;;;;;-2.58;66.58;93636.97;5070200;28;20074;-38
2022/01/23 11:40:23;;;;;;;17.42;8.95;;;;;;;-2.42;66.85;93626.47;5070052;28;20553;-38
2022/01/23 11:54:05;;;;;;;15.00;9.57;;;;;;;-2.51;66.31;93620.38;5054658;28;20048;-39
2022/01/23 11:56:39;;;;;;;15.13;11.07;;;;;;;-2.64;66.90;93622.59;5084147;28;20103;-38
2022/01/23 11:59:28;;;;;;;22.38;11.07;;;;;;;-2.63;66.70;93627.53;5084158;28;20035;-38
2022/01/23 12:02:10;;;;;;;;;;;;;;;-2.84;67.01;93622.41;5069708;28;20107;-39
2022/01/23 12:04:36;;;;;;;12.85;8.80;;;;;;;-2.83;66.71;93619.22;5069811;28;19966;-38
2022/01/23 12:07:11;;;;;;;13.38;6.82;;;;;;;-2.93;66.75;93625.16;5069761;28;20032;-38
2022/01/23 12:09:37;;;;;;;16.10;7.82;;;;;;;-2.76;67.12;93618.91;5069886;28;20044;-39
2022/01/23 12:12:34;;;;;;;12.75;7.32;;;;;;;-2.68;66.77;93627.41;5069805;28;20033;-39
2022/01/23 12:18:15;;;;;;;21.88;11.13;;;;;;;-2.59;67.57;93619.22;5069757;28;20036;-38
2022/01/23 12:20:42;;;;;;;;;;;;;;;-2.62;66.59;93626.31;5070183;28;20716;-38
2022/01/23 12:23:09;;;;;;;34.70;17.05;;;;;;;-2.91;67.23;93598.41;5069793;28;20018;-38
2022/01/23 12:25:46;;;;;;;39.03;19.75;;;;;;;-2.84;66.54;93630.50;5069799;28;20037;-39
2022/01/23 12:28:24;;;;;;;49.47;22.05;;;;;;;-2.92;67.40;93632.78;5069971;28;20099;-38
2022/01/23 12:30:54;;;;;;;20.27;10.37;;;;;;;-3.05;67.78;93632.25;5069530;28;20056;-37
2022/01/23 12:33:23;;;;;;;19.52;9.50;;;;;;;-3.09;67.42;93623.56;5058463;28;20041;-38
2022/01/23 12:35:54;;;;;;;20.27;10.35;;;;;;;-3.08;67.79;93627.75;5049542;28;20053;-37
2022/01/23 12:38:28;;;;;;;34.58;23.30;;;;;;;-3.28;68.23;93622.16;5049737;28;20048;-38
2022/01/23 12:40:53;;;;;;;15.15;10.75;;;;;;;-3.39;68.31;93609.13;5055450;28;20020;-37
2022/01/23 12:43:21;;;;;;;23.02;9.82;;;;;;;-3.30;68.61;93613.75;5078543;28;20047;-39
2022/01/23 12:46:05;;;;;;;20.83;11.25;;;;;;;-3.19;68.97;93624.81;5073521;28;20016;-35
2022/01/23 12:48:38;;;;;;;18.50;10.40;;;;;;;-3.17;69.16;93620.47;5068601;28;20032;-38
2022/01/23 12:51:14;;;;;;;9.70;6.57;;;;;;;-2.92;69.18;93623.94;5069263;28;20020;-37
2022/01/23 12:53:46;;;;;;;9.27;5.72;;;;;;;-2.73;68.03;93609.13;5068615;28;20031;-38
2022/01/23 12:56:14;;;;;;;10.95;5.57;;;;;;;-2.80;67.38;93612.91;5069366;28;20383;-37
2022/01/23 12:58:41;;;;;;;11.93;7.18;;;;;;;-2.74;67.86;93621.13;5069584;28;20075;-37
2022/01/23 13:01:17;;;;;;;15.00;5.95;;;;;;;-2.94;67.68;93629.03;5069581;28;20097;-37
2022/01/23 13:03:56;;;;;;;9.68;5.30;;;;;;;-2.98;68.70;93623.06;5069355;28;20486;-37
2022/01/23 13:06:36;;;;;;;;;;;;;;;-2.97;68.09;93635.38;5077564;28;20401;-38
2022/01/23 13:09:27;;;;;;;5.68;4.22;;;;;;;-3.04;68.12;93627.59;5071336;28;19916;-39
2022/01/23 13:12:05;;;;;;;6.40;4.53;;;;;;;-3.11;68.29;93632.13;5077147;28;20031;-37
2022/01/23 13:31:45;;;;;;;13.55;7.43;;;;;;;-2.56;67.18;93626.44;5071169;28;20090;-37
2022/01/23 13:34:29;;;;;;;10.25;5.85;;;;;;;-2.55;67.65;93627.91;5070571;28;20071;-37
2022/01/23 13:37:00;;;;;;;8.48;6.30;;;;;;;-2.49;67.78;93631.50;5069736;28;20043;-38
2022/01/23 13:39:37;;;;;;;14.88;7.95;;;;;;;-2.61;68.86;93627.06;5070246;28;20021;-37
2022/01/23 13:42:43;;;;;;;9.30;6.57;;;;;;;-2.60;68.32;93629.28;5070833;28;20366;-37
2022/01/23 13:51:39;;;;;;;10.65;5.78;;;;;;;-2.95;68.76;93631.00;5069483;28;20162;-37
2022/01/23 14:00:26;;;;;;;13.65;6.68;;;;;;;-3.07;69.46;93642.75;5052054;28;20173;-37
2022/01/23 14:02:53;;;;;;;9.93;5.82;;;;;;;-3.09;70.08;93640.50;5034885;28;20114;-37
2022/01/23 14:05:22;;;;;;;10.30;6.10;;;;;;;-3.18;70.22;93607.38;5052216;28;20052;-38
2022/01/23 14:07:54;;;;;;;10.50;5.38;;;;;;;-3.10;69.50;93641.72;5065605;28;20069;-38
2022/01/23 14:10:23;;;;;;;8.35;5.53;;;;;;;-3.03;69.73;93639.91;5071977;28;20040;-38
2022/01/23 14:12:49;;;;;;;;;;;;;;;-3.04;69.62;93633.75;5057401;28;20025;-39
2022/01/23 14:15:23;;;;;;;11.85;7.55;;;;;;;-3.07;69.57;93637.34;5067327;28;19908;-37
2022/01/23 14:18:10;;;;;;;15.93;9.52;;;;;;;-3.16;68.77;93611.13;5068523;28;20062;-38
2022/01/23 14:20:45;;;;;;;15.30;7.55;;;;;;;-3.10;68.55;93639.00;5073751;28;20060;-38
2022/01/23 14:23:18;;;;;;;14.75;7.45;;;;;;;-3.03;68.69;93639.91;5066038;28;20036;-38
2022/01/23 14:25:47;;;;;;;14.65;7.10;;;;;;;-3.05;69.10;93650.41;5065883;28;20124;-38
2022/01/23 14:28:14;;;;;;;;;;;;;;;-3.15;68.33;93644.28;5069154;28;20497;-37
2022/01/23 14:30:45;;;;;;;13.45;7.18;;;;;;;-3.33;69.55;93653.19;5068645;28;20441;-39
2022/01/23 14:33:34;;;;;;;24.63;8.90;;;;;;;-3.39;69.87;93654.28;5073005;28;20023;-39
2022/01/23 14:36:18;;;;;;;10.77;6.40;;;;;;;-3.60;71.34;93623.59;5053634;28;20052;-38
2022/01/23 14:38:58;;;;;;;10.57;6.00;;;;;;;-3.29;71.45;93656.47;5063308;28;20028;-39
2022/01/23 14:41:26;;;;;;;9.68;6.60;;;;;;;-3.24;72.28;93655.13;5059782;28;20029;-39
2022/01/23 14:43:52;;;;;;;11.53;6.50;;;;;;;-3.25;71.23;93662.47;5058145;28;20016;-38
2022/01/23 14:46:18;;;;;;;12.00;6.63;;;;;;;-3.25;71.66;93648.97;5055164;28;20461;-39
2022/01/23 14:48:48;;;;;;;10.05;6.25;;;;;;;-3.37;70.98;93659.97;5063874;28;20406;-39
2022/01/23 14:51:18;;;;;;;18.85;8.57;;;;;;;-3.18;71.33;93659.44;5062731;28;20024;-38
2022/01/23 14:53:44;;;;;;;17.92;11.85;;;;;;;-3.23;70.75;93657.34;5065187;28;20032;-38
2022/01/23 14:56:13;;;;;;;13.25;9.00;;;;;;;-3.26;71.06;93665.63;5067373;28;20414;-39
2022/01/23 14:58:43;;;;;;;22.63;11.30;;;;;;;-3.15;70.58;93668.59;5065269;28;20020;-38
2022/01/23 15:01:11;;;;;;;18.17;10.85;;;;;;;-3.12;71.16;93671.13;5068208;28;20113;-38
2022/01/23 15:03:39;;;;;;;27.52;10.65;;;;;;;-3.22;71.08;93668.91;5068354;28;20099;-38